CheckWX is a tool to help pilots better visualize weather data.  It is not intended as a substitute for an official pre-flight weather briefing.

03:28:34 UTC

KCNK METAR
Blosser Municipal Airport
Concordia, Kansas, USA
Current

34 mins ago

KCNK 260255Z AUTO 20027G40KT 10SM -RA FEW010 OVC110 23/21 A2998 RMK AO2 PK WND 21040/0254 LTG DSNT N AND SE AND NW PRESRR SLP138 P0001 60001 T02330211 51023
Observed
May-26 @ 02:55 UTC
Wind
  • 200° at 27 KTS
  • Gusting to 40 KTS
Visibility
10 SM
Flight Rules
VFR
Conditions
Light Rain
Cloud Levels
  • Few at 1,000' AGL
  • Overcast at 11,000' AGL
Temperature
23°C / 73°F
Dewpoint
21°C / 70°F
Humidity
89%
Altimeter
29.98" Hg
Pressure
1015.22 hPa
Current Rain
0.01"
Previous

2 hours ago

KCNK 260155Z AUTO 18009KT 10SM -RA FEW060 SCT075 OVC110 23/21 A2996 RMK AO2 LTG DSNT S-NW RAB42 SLP134 P0000 T02330211
Observed
May-26 @ 01:55 UTC
Wind
  • 180° at 9 KTS
Visibility
10 SM
Flight Rules
VFR
Conditions
Light Rain
Cloud Levels
  • Few at 6,000' AGL
  • Scattered at 7,500' AGL
  • Overcast at 11,000' AGL
Temperature
23°C / 73°F
Dewpoint
21°C / 70°F
Humidity
89%
Altimeter
29.96" Hg
Pressure
1014.52 hPa
Current Rain
0.01"
Previous

3 hours ago

KCNK 260055Z AUTO 17010KT 10SM FEW030 BKN060 24/21 A2993 RMK AO2 SLP125 T02390206
Observed
May-26 @ 00:55 UTC
Wind
  • 170° at 10 KTS
Visibility
10 SM
Flight Rules
VFR
Cloud Levels
  • Few at 3,000' AGL
  • Broken at 6,000' AGL
Temperature
24°C / 75°F
Dewpoint
21°C / 70°F
Humidity
83%
Altimeter
29.93" Hg
Pressure
1013.52 hPa